Time;durP1;ratioP1;P1;durP2;ratioP2;P2;SDS_P1;SDS_P2;PMS_P1;PMS_P2;Temp;Humidity;BMP_temperature;BMP_pressure;BME280_temperature;BME280_humidity;BME280_pressure;Samples;Min_cycle;Max_cycle;Signal;HPM_P1;HPM_P2
2022/05/14 00:00:48;;;;;;;11.25;2.80;;;12.30;99.90;;;;;;5089741;28;20047;-76
2022/05/14 00:03:14;;;;;;;8.70;2.47;;;12.30;99.90;;;;;;5110549;28;20084;-77
2022/05/14 00:05:40;;;;;;;5.50;2.30;;;12.30;99.90;;;;;;5102126;28;20373;-76
2022/05/14 00:08:06;;;;;;;7.13;2.75;;;12.20;99.90;;;;;;5089379;28;20039;-77
2022/05/14 00:10:32;;;;;;;7.85;2.63;;;12.30;99.90;;;;;;5113861;28;20027;-77
2022/05/14 00:13:04;;;;;;;8.90;2.70;;;12.20;99.90;;;;;;5082247;28;20051;-77
2022/05/14 00:15:36;;;;;;;7.70;2.60;;;12.30;99.90;;;;;;5095647;27;20046;-76
2022/05/14 00:18:04;;;;;;;8.48;2.78;;;12.30;99.90;;;;;;5100167;27;20050;-76
2022/05/14 00:20:29;;;;;;;7.75;2.72;;;12.30;99.90;;;;;;5094697;28;20503;-76
2022/05/14 00:22:55;;;;;;;9.18;2.80;;;12.30;99.90;;;;;;5116685;27;20050;-76
2022/05/14 00:25:22;;;;;;;7.55;2.50;;;12.30;99.90;;;;;;5115654;27;20031;-77
2022/05/14 00:27:49;;;;;;;8.52;2.78;;;12.30;99.90;;;;;;5099136;27;20038;-76
2022/05/14 00:30:16;;;;;;;8.85;2.83;;;12.20;99.90;;;;;;5111278;28;20062;-76
2022/05/14 00:32:42;;;;;;;8.23;3.30;;;12.20;99.90;;;;;;5105047;28;20123;-77
2022/05/14 00:35:09;;;;;;;7.82;2.50;;;12.30;99.90;;;;;;5113027;28;20122;-77
2022/05/14 00:37:36;;;;;;;10.00;2.67;;;12.20;99.90;;;;;;5091021;28;20042;-77
2022/05/14 00:40:05;;;;;;;8.05;2.85;;;12.20;99.90;;;;;;5095195;28;20122;-76
2022/05/14 00:42:31;;;;;;;9.75;2.95;;;12.20;99.90;;;;;;5106070;28;20491;-79
2022/05/14 00:44:58;;;;;;;10.55;3.00;;;12.20;99.90;;;;;;5104669;28;20035;-78
2022/05/14 00:47:25;;;;;;;10.20;3.00;;;12.20;99.90;;;;;;5079955;28;20122;-79
2022/05/14 00:49:51;;;;;;;11.82;3.20;;;12.10;99.90;;;;;;5111330;28;20111;-76
2022/05/14 00:52:20;;;;;;;6.90;3.03;;;12.80;99.90;;;;;;5093505;28;20122;-76
2022/05/14 00:55:06;;;;;;;12.50;3.03;;;12.20;99.90;;;;;;5112178;28;20495;-79
2022/05/14 00:57:35;;;;;;;10.18;3.47;;;12.10;99.90;;;;;;5104693;28;20134;-77
2022/05/14 01:00:07;;;;;;;11.50;3.10;;;12.10;99.90;;;;;;5092604;28;20039;-77
2022/05/14 01:02:33;;;;;;;15.50;3.42;;;12.10;99.90;;;;;;5078216;28;20078;-78
2022/05/14 01:05:00;;;;;;;9.48;3.33;;;12.10;99.90;;;;;;5088680;28;20075;-78
2022/05/14 01:07:27;;;;;;;10.68;3.38;;;12.10;99.90;;;;;;5077153;28;20044;-78
2022/05/14 01:09:57;;;;;;;9.88;3.72;;;12.00;99.90;;;;;;5107721;28;20044;-78
2022/05/14 01:12:25;;;;;;;10.90;3.53;;;12.00;99.90;;;;;;5095365;28;20091;-78
2022/05/14 01:14:51;;;;;;;13.43;3.70;;;12.00;99.90;;;;;;5108749;28;20549;-78
2022/05/14 01:17:17;;;;;;;13.00;3.50;;;12.00;99.90;;;;;;5084020;28;20047;-77
2022/05/14 01:19:43;;;;;;;14.63;3.58;;;12.00;99.90;;;;;;5108293;28;20051;-79
2022/05/14 01:22:33;;;;;;;8.27;3.38;;;12.00;99.90;;;;;;5084696;28;20496;-78
2022/05/14 01:27:59;;;;;;;10.57;3.25;;;11.90;99.90;;;;;;5106166;28;20573;-78
2022/05/14 01:30:24;;;;;;;13.45;3.42;;;11.90;99.90;;;;;;5087252;28;20048;-78
2022/05/14 01:33:04;;;;;;;9.25;3.50;;;11.80;99.90;;;;;;5078362;28;20525;-78
2022/05/14 01:35:36;;;;;;;14.10;3.80;;;11.80;99.90;;;;;;5093123;28;20121;-78
2022/05/14 01:38:02;;;;;;;12.45;3.80;;;11.80;99.90;;;;;;5095099;28;20069;-78
2022/05/14 01:40:30;;;;;;;13.30;4.15;;;11.80;99.90;;;;;;5092355;28;20044;-78
2022/05/14 01:42:55;;;;;;;12.20;4.13;;;11.80;99.90;;;;;;5099513;28;20040;-78
2022/05/14 01:45:21;;;;;;;13.85;4.03;;;11.80;99.90;;;;;;5081903;28;20059;-78
2022/05/14 01:47:47;;;;;;;16.27;4.50;;;11.70;99.90;;;;;;5071900;28;20028;-78
2022/05/14 01:50:13;;;;;;;12.00;4.22;;;11.70;99.90;;;;;;5095691;28;20479;-78
2022/05/14 01:52:38;;;;;;;11.05;3.92;;;11.60;99.90;;;;;;5100560;28;20031;-78
2022/05/14 01:55:05;;;;;;;13.10;4.15;;;11.70;99.90;;;;;;5095983;28;20506;-78
2022/05/14 01:57:30;;;;;;;10.35;3.45;;;11.70;99.90;;;;;;5093354;28;20047;-79
2022/05/14 01:59:56;;;;;;;17.20;4.20;;;11.60;99.90;;;;;;5109471;28;20369;-78
2022/05/14 02:02:22;;;;;;;13.75;4.47;;;11.70;99.90;;;;;;5087043;28;20046;-78
2022/05/14 02:04:47;;;;;;;15.30;4.63;;;12.00;99.90;;;;;;5077558;28;20040;-78
2022/05/14 02:07:13;;;;;;;16.20;4.75;;;11.60;99.90;;;;;;5074692;28;20038;-78
2022/05/14 02:09:39;;;;;;;11.32;4.13;;;11.90;99.90;;;;;;5110649;28;20070;-78
2022/05/14 02:12:05;;;;;;;14.43;4.38;;;11.60;99.90;;;;;;5109575;28;20142;-78
2022/05/14 02:14:31;;;;;;;12.68;4.50;;;11.60;99.90;;;;;;5094208;28;20495;-77
2022/05/14 02:16:57;;;;;;;13.32;4.20;;;11.60;99.90;;;;;;5091678;28;20074;-78
2022/05/14 02:19:23;;;;;;;17.02;4.45;;;11.70;99.90;;;;;;5105236;28;20491;-78
2022/05/14 02:21:49;;;;;;;16.92;4.88;;;11.70;99.90;;;;;;5059416;28;20036;-78
2022/05/14 02:24:15;;;;;;;19.35;4.85;;;11.70;99.90;;;;;;5078868;28;20050;-78
2022/05/14 02:26:40;;;;;;;18.42;4.70;;;11.70;99.90;;;;;;5093885;28;20036;-78
2022/05/14 02:29:06;;;;;;;15.95;4.80;;;11.70;99.90;;;;;;5110180;28;20438;-77
2022/05/14 02:31:32;;;;;;;19.42;4.90;;;11.70;99.90;;;;;;5110220;28;20047;-78
2022/05/14 02:33:57;;;;;;;17.90;5.45;;;11.70;99.90;;;;;;5087637;28;20043;-78
2022/05/14 02:36:24;;;;;;;14.90;4.78;;;11.70;99.90;;;;;;5103339;28;20044;-78
2022/05/14 02:38:49;;;;;;;18.95;5.93;;;11.70;99.90;;;;;;5093077;28;20082;-78
2022/05/14 02:41:15;;;;;;;18.10;4.85;;;11.70;99.90;;;;;;5081111;28;20449;-78
2022/05/14 02:43:41;;;;;;;15.88;5.18;;;11.70;99.90;;;;;;5072310;28;20170;-78
2022/05/14 02:46:07;;;;;;;19.88;5.50;;;11.70;99.90;;;;;;5097201;28;20042;-79
2022/05/14 02:48:35;;;;;;;20.23;6.03;;;11.70;99.90;;;;;;5104223;28;20388;-78
2022/05/14 02:51:01;;;;;;;20.20;5.15;;;11.70;99.90;;;;;;5091309;28;20039;-78
2022/05/14 02:53:27;;;;;;;18.75;5.10;;;11.70;99.90;;;;;;5103138;28;20036;-78
2022/05/14 02:55:53;;;;;;;14.38;5.10;;;11.60;99.90;;;;;;5110689;28;20050;-78
2022/05/14 03:01:04;;;;;;;19.52;5.10;;;11.60;99.90;;;;;;5078553;28;20416;-78
2022/05/14 03:03:31;;;;;;;14.93;5.40;;;11.60;99.90;;;;;;5092448;28;20050;-78
2022/05/14 03:05:56;;;;;;;18.40;5.57;;;11.50;99.90;;;;;;5111688;28;20039;-79
2022/05/14 03:08:22;;;;;;;21.67;5.90;;;11.50;99.90;;;;;;5093750;28;20044;-78
2022/05/14 03:10:48;;;;;;;17.15;5.07;;;11.60;99.90;;;;;;5108565;28;20502;-79
2022/05/14 03:13:13;;;;;;;21.63;5.85;;;11.40;99.90;;;;;;5094681;28;20582;-77
2022/05/14 03:15:39;;;;;;;19.55;5.63;;;11.40;99.90;;;;;;5086801;28;20040;-76
2022/05/14 03:18:05;;;;;;;16.13;5.72;;;11.40;99.90;;;;;;5095697;28;20118;-76
2022/05/14 03:20:30;;;;;;;17.50;5.68;;;11.30;99.90;;;;;;5083673;28;20055;-76
2022/05/14 03:22:56;;;;;;;15.13;5.47;;;11.30;99.90;;;;;;5112134;28;20055;-76
2022/05/14 03:25:22;;;;;;;15.88;5.40;;;11.20;99.90;;;;;;5111794;28;20032;-76
2022/05/14 03:27:47;;;;;;;16.08;4.95;;;11.50;99.90;;;;;;5087841;28;20042;-76
2022/05/14 03:30:13;;;;;;;15.35;5.35;;;11.20;99.90;;;;;;5078571;28;20052;-76
2022/05/14 03:32:40;;;;;;;16.20;6.38;;;11.90;99.90;;;;;;5109603;28;20047;-76
2022/05/14 03:35:08;;;;;;;20.77;5.90;;;11.10;99.90;;;;;;5095579;28;20035;-76
2022/05/14 03:37:35;;;;;;;17.88;6.35;;;11.00;99.90;;;;;;5109887;28;20044;-76
2022/05/14 03:40:01;;;;;;;16.33;6.55;;;11.00;99.90;;;;;;5106909;28;20043;-76
2022/05/14 03:42:27;;;;;;;20.75;6.43;;;11.00;99.90;;;;;;5103619;28;20503;-76
2022/05/14 03:44:52;;;;;;;23.50;6.45;;;11.00;99.90;;;;;;5101547;28;20082;-77
2022/05/14 03:47:18;;;;;;;19.88;6.78;;;10.90;99.90;;;;;;5081519;28;20111;-77
2022/05/14 03:49:45;;;;;;;19.25;6.30;;;10.90;99.90;;;;;;5094749;28;20040;-77
2022/05/14 03:52:12;;;;;;;18.30;6.20;;;11.10;99.90;;;;;;5077396;28;20043;-77
2022/05/14 03:54:38;;;;;;;16.25;6.32;;;10.90;99.90;;;;;;5079697;28;20060;-77
2022/05/14 03:57:08;;;;;;;14.60;6.10;;;10.90;99.90;;;;;;5111052;28;20120;-78
2022/05/14 03:59:34;;;;;;;16.10;5.90;;;10.90;99.90;;;;;;5093504;28;20035;-78
2022/05/14 04:02:00;;;;;;;17.50;6.30;;;10.90;99.90;;;;;;5111762;28;20047;-78
2022/05/14 04:04:26;;;;;;;19.42;6.30;;;11.00;99.90;;;;;;5080712;28;20036;-78
2022/05/14 04:06:53;;;;;;;15.13;5.68;;;10.80;99.90;;;;;;5081596;28;20036;-80
2022/05/14 04:09:19;;;;;;;16.92;6.45;;;10.80;99.90;;;;;;5115651;28;20114;-78
2022/05/14 04:11:46;;;;;;;16.83;6.18;;;10.80;99.90;;;;;;5064370;28;20390;-78
2022/05/14 04:14:12;;;;;;;17.02;5.82;;;10.70;99.90;;;;;;5097365;28;20515;-78
2022/05/14 04:16:38;;;;;;;17.23;6.38;;;10.80;99.90;;;;;;5111232;28;20040;-78
2022/05/14 04:19:04;;;;;;;18.35;6.75;;;10.70;99.90;;;;;;5084597;28;20058;-78
2022/05/14 04:21:32;;;;;;;15.40;6.45;;;10.70;99.90;;;;;;5112988;28;20047;-78
2022/05/14 04:23:59;;;;;;;17.17;6.03;;;10.70;99.90;;;;;;5113413;28;20036;-78
2022/05/14 04:26:25;;;;;;;12.60;5.65;;;10.80;99.90;;;;;;5110955;28;20077;-79
2022/05/14 04:28:51;;;;;;;18.45;6.80;;;10.70;99.90;;;;;;5112895;28;20557;-78
2022/05/14 04:31:18;;;;;;;15.02;5.85;;;10.70;99.90;;;;;;5062853;28;20040;-78
2022/05/14 04:33:44;;;;;;;13.07;5.80;;;10.60;99.90;;;;;;5077993;28;20100;-78
2022/05/14 04:36:09;;;;;;;15.68;6.18;;;10.50;99.90;;;;;;5112595;28;20039;-78
2022/05/14 04:38:35;;;;;;;15.85;6.53;;;10.60;99.90;;;;;;5096525;28;20032;-78
2022/05/14 04:41:01;;;;;;;19.20;6.15;;;10.70;99.90;;;;;;5075807;28;20113;-79
2022/05/14 04:43:26;;;;;;;18.38;6.55;;;10.60;99.90;;;;;;5095420;28;20043;-78
2022/05/14 04:45:53;;;;;;;13.98;6.20;;;10.80;99.90;;;;;;5114730;28;20031;-78
2022/05/14 04:48:20;;;;;;;15.10;7.13;;;11.00;99.90;;;;;;5096458;28;20036;-78
2022/05/14 04:50:46;;;;;;;18.17;7.05;;;10.70;99.90;;;;;;5110602;28;20046;-78
2022/05/14 04:53:12;;;;;;;16.88;7.05;;;10.70;99.90;;;;;;5074646;28;20403;-78
2022/05/14 04:55:38;;;;;;;17.77;7.40;;;10.80;99.90;;;;;;5089080;28;20523;-78
2022/05/14 04:58:06;;;;;;;19.88;7.25;;;10.80;99.90;;;;;;5108547;28;20124;-78
2022/05/14 05:00:32;;;;;;;18.02;6.53;;;10.80;99.90;;;;;;5111673;28;20119;-78
2022/05/14 05:05:42;;;;;;;19.85;6.32;;;11.00;99.90;;;;;;5113524;28;20089;-78
2022/05/14 05:08:09;;;;;;;16.98;6.53;;;11.00;99.90;;;;;;5076751;28;20044;-78
2022/05/14 05:10:35;;;;;;;16.67;6.40;;;11.20;99.90;;;;;;5092243;28;20431;-78
2022/05/14 05:13:00;;;;;;;16.00;6.55;;;10.90;99.90;;;;;;5092056;28;20046;-79
2022/05/14 05:15:26;;;;;;;14.88;6.03;;;11.40;99.90;;;;;;5074081;28;20052;-78
2022/05/14 05:17:52;;;;;;;19.75;7.63;;;11.00;99.90;;;;;;5071974;28;20072;-78
2022/05/14 05:20:18;;;;;;;20.75;7.53;;;11.10;99.90;;;;;;5107304;28;20054;-78
2022/05/14 05:22:44;;;;;;;16.20;7.35;;;11.00;99.90;;;;;;5060812;28;20040;-78
2022/05/14 05:25:12;;;;;;;14.35;6.75;;;11.10;99.90;;;;;;5113634;28;20535;-78
2022/05/14 05:27:37;;;;;;;18.85;6.63;;;11.10;99.90;;;;;;5087266;28;20032;-78
2022/05/14 05:30:05;;;;;;;18.48;7.13;;;11.00;99.90;;;;;;5067929;28;20069;-78
2022/05/14 05:32:30;;;;;;;20.27;7.72;;;11.10;99.90;;;;;;5097322;28;20089;-79
2022/05/14 05:34:56;;;;;;;16.13;6.90;;;11.20;99.90;;;;;;5113457;28;20437;-78
2022/05/14 05:37:22;;;;;;;16.80;7.55;;;11.20;99.90;;;;;;5111331;28;20089;-81
2022/05/14 05:39:48;;;;;;;19.15;7.50;;;11.30;99.90;;;;;;5080995;28;20032;-79
2022/05/14 05:42:13;;;;;;;19.92;8.00;;;11.30;99.90;;;;;;5077071;28;20051;-80
2022/05/14 05:44:39;;;;;;;19.98;7.63;;;11.40;99.90;;;;;;5109683;28;20118;-79
2022/05/14 05:47:06;;;;;;;17.08;7.57;;;11.50;99.90;;;;;;5075996;28;20040;-78
2022/05/14 05:49:37;;;;;;;18.98;7.65;;;11.50;99.90;;;;;;5097713;28;20483;-78
2022/05/14 05:52:03;;;;;;;19.80;8.05;;;11.50;99.90;;;;;;5080622;28;20040;-79
2022/05/14 05:57:13;;;;;;;21.52;8.32;;;11.70;99.90;;;;;;5113449;28;20081;-79
2022/05/14 05:59:38;;;;;;;22.50;9.02;;;11.70;99.90;;;;;;5095606;28;20070;-79
2022/05/14 06:02:04;;;;;;;19.23;8.85;;;11.80;99.90;;;;;;5105308;28;20040;-79
2022/05/14 06:04:30;;;;;;;18.58;8.13;;;11.90;99.90;;;;;;5089905;28;20515;-80
2022/05/14 06:06:56;;;;;;;26.77;9.13;;;12.00;99.90;;;;;;5106536;28;20035;-79
2022/05/14 06:09:24;;;;;;;22.27;9.55;;;12.00;99.90;;;;;;5097873;28;20035;-79
2022/05/14 06:11:50;;;;;;;22.20;8.95;;;12.10;99.90;;;;;;5113736;28;20127;-80
2022/05/14 06:14:17;;;;;;;19.85;9.20;;;12.30;99.90;;;;;;5094774;28;20127;-79
2022/05/14 06:16:43;;;;;;;23.05;9.32;;;12.30;99.90;;;;;;5097752;28;20036;-79
2022/05/14 06:19:09;;;;;;;20.60;9.23;;;12.40;99.90;;;;;;5106860;28;20043;-79
2022/05/14 06:21:36;;;;;;;24.95;9.30;;;12.60;99.90;;;;;;5107264;28;20039;-78
2022/05/14 06:24:04;;;;;;;26.13;9.82;;;12.70;99.90;;;;;;5094745;28;20042;-78
2022/05/14 06:26:29;;;;;;;24.25;9.30;;;12.80;99.90;;;;;;5109572;28;20036;-76
2022/05/14 06:28:55;;;;;;;22.73;9.48;;;12.90;99.90;;;;;;5095963;28;20047;-80
2022/05/14 06:31:21;;;;;;;26.98;9.48;;;13.10;99.90;;;;;;5094710;28;20047;-79
2022/05/14 06:33:47;;;;;;;24.02;9.07;;;13.30;99.90;;;;;;5109639;28;20074;-78
2022/05/14 06:36:14;;;;;;;21.80;9.30;;;13.40;99.90;;;;;;5103756;28;20455;-79
2022/05/14 06:38:41;;;;;;;21.73;8.63;;;13.60;99.90;;;;;;5108331;28;20043;-79
2022/05/14 06:41:09;;;;;;;23.77;9.10;;;13.90;99.90;;;;;;5090195;28;20399;-78
2022/05/14 06:43:35;;;;;;;19.52;8.15;;;14.30;99.90;;;;;;5093064;28;20519;-78
2022/05/14 06:46:00;;;;;;;25.92;8.50;;;14.80;99.90;;;;;;5089833;28;20036;-76
2022/05/14 06:48:26;;;;;;;28.42;8.57;;;15.30;99.90;;;;;;5107623;28;20074;-76
2022/05/14 06:50:53;;;;;;;21.80;8.38;;;15.60;99.90;;;;;;5093904;28;20032;-76
2022/05/14 06:53:20;;;;;;;22.40;8.57;;;15.90;99.90;;;;;;5090966;28;20400;-76
2022/05/14 06:55:50;;;;;;;23.95;8.25;;;16.20;99.90;;;;;;5079333;28;20066;-77
2022/05/14 06:58:19;;;;;;;28.02;8.18;;;16.10;99.90;;;;;;5106767;28;20039;-77
2022/05/14 07:00:46;;;;;;;20.60;8.50;;;16.20;99.90;;;;;;5094525;28;20032;-76
2022/05/14 07:08:41;;;;;;;24.73;7.82;;;16.60;99.90;;;;;;5095013;28;20398;-76
2022/05/14 07:11:09;;;;;;;22.80;7.40;;;17.00;99.90;;;;;;5084998;28;20040;-77
2022/05/14 07:13:35;;;;;;;26.67;7.28;;;17.30;99.90;;;;;;5080940;28;20047;-77
2022/05/14 07:16:01;;;;;;;23.95;7.20;;;17.60;99.90;;;;;;5050724;28;20036;-77
2022/05/14 07:18:26;;;;;;;20.83;7.07;;;17.90;99.90;;;;;;5108107;28;20479;-77
2022/05/14 07:20:52;;;;;;;23.75;7.45;;;18.20;99.90;;;;;;5075305;28;20043;-77
2022/05/14 07:23:18;;;;;;;25.30;7.38;;;18.40;99.90;;;;;;5092169;28;20063;-78
2022/05/14 07:25:44;;;;;;;23.60;7.63;;;18.70;99.90;;;;;;5104078;28;20038;-76
2022/05/14 07:28:09;;;;;;;21.55;6.60;;;18.80;99.90;;;;;;5111035;28;20043;-77
2022/05/14 07:30:36;;;;;;;25.02;6.95;;;18.90;99.90;;;;;;5094416;28;20100;-77
2022/05/14 07:33:02;;;;;;;18.50;5.85;;;19.00;99.90;;;;;;5109031;28;20078;-77
2022/05/14 07:35:28;;;;;;;25.17;6.22;;;19.10;99.90;;;;;;5094800;28;20100;-77
2022/05/14 07:37:56;;;;;;;18.38;6.18;;;19.20;99.90;;;;;;5076207;28;20087;-77
2022/05/14 07:40:26;;;;;;;21.45;5.95;;;19.50;99.90;;;;;;5112298;28;20042;-77
2022/05/14 07:43:22;;;;;;;16.05;5.15;;;19.30;99.90;;;;;;5086360;28;20066;-77
2022/05/14 07:45:53;;;;;;;19.17;5.40;;;19.30;99.90;;;;;;5105565;28;20061;-76
2022/05/14 07:48:31;;;;;;;20.05;5.95;;;19.30;99.90;;;;;;5108673;28;20140;-76
2022/05/14 07:51:02;;;;;;;21.90;6.18;;;19.40;99.90;;;;;;5089508;28;20039;-77
2022/05/14 07:53:30;;;;;;;21.25;5.95;;;19.60;99.90;;;;;;5092578;28;20078;-76
2022/05/14 07:55:57;;;;;;;18.70;6.20;;;19.70;99.90;;;;;;5093944;28;20069;-77
2022/05/14 07:58:24;;;;;;;20.20;5.90;;;19.80;99.90;;;;;;5078404;28;20043;-77
2022/05/14 08:00:49;;;;;;;21.00;5.78;;;19.80;99.90;;;;;;5094418;28;20071;-77
2022/05/14 08:03:16;;;;;;;22.35;5.75;;;19.80;99.90;;;;;;5079937;28;20083;-77
2022/05/14 08:05:42;;;;;;;22.45;5.88;;;19.80;99.90;;;;;;5079725;28;20043;-76
2022/05/14 08:08:08;;;;;;;22.73;5.63;;;19.90;99.90;;;;;;5103272;28;20169;-76
2022/05/14 08:10:34;;;;;;;19.98;5.55;;;20.00;99.90;;;;;;5088361;28;20039;-78
2022/05/14 08:13:00;;;;;;;20.25;5.10;;;20.10;99.90;;;;;;5062012;28;20052;-77
2022/05/14 08:15:27;;;;;;;23.00;5.00;;;20.10;99.90;;;;;;5087760;28;20065;-77
2022/05/14 08:17:53;;;;;;;19.08;5.20;;;20.10;99.90;;;;;;5105940;28;20044;-77
2022/05/14 08:20:19;;;;;;;19.88;5.18;;;20.20;99.90;;;;;;5076537;28;20043;-77
2022/05/14 08:25:30;;;;;;;20.10;4.40;;;20.30;99.30;;;;;;5096751;28;20044;-77
2022/05/14 08:27:56;;;;;;;20.08;4.95;;;20.30;98.00;;;;;;5095039;28;20039;-77
2022/05/14 08:30:28;;;;;;;17.15;4.90;;;20.30;96.80;;;;;;5094495;28;20052;-76
2022/05/14 08:32:54;;;;;;;17.17;4.20;;;20.20;96.30;;;;;;5083712;28;20044;-78
2022/05/14 08:35:21;;;;;;;15.90;4.15;;;20.30;96.90;;;;;;5102055;28;20097;-77
2022/05/14 08:37:50;;;;;;;15.00;4.10;;;20.40;96.20;;;;;;5107474;28;20118;-76
2022/05/14 08:40:21;;;;;;;17.65;4.40;;;20.50;95.30;;;;;;5120088;28;20040;-76
2022/05/14 08:42:51;;;;;;;18.40;4.40;;;20.40;93.60;;;;;;5096391;28;20051;-77
2022/05/14 08:45:20;;;;;;;16.75;5.18;;;20.20;93.40;;;;;;5097762;28;20036;-76
2022/05/14 08:47:55;;;;;;;13.23;3.80;;;20.20;93.80;;;;;;5096612;28;20032;-77
2022/05/14 08:50:25;;;;;;;21.08;4.95;;;20.30;94.00;;;;;;5097134;28;20046;-78
2022/05/14 08:52:51;;;;;;;19.23;5.50;;;20.40;94.20;;;;;;5115024;28;20568;-78
2022/05/14 08:55:18;;;;;;;22.02;5.07;;;20.40;93.80;;;;;;5097733;28;20043;-78
2022/05/14 08:58:08;;;;;;;20.52;4.68;;;20.20;94.30;;;;;;5096697;28;20122;-78
2022/05/14 09:00:34;;;;;;;27.85;6.03;;;20.20;95.30;;;;;;5101594;28;20047;-78
2022/05/14 09:03:00;;;;;;;22.92;5.82;;;20.30;95.80;;;;;;5065521;28;20507;-78
2022/05/14 09:05:30;;;;;;;25.58;5.97;;;20.40;96.00;;;;;;5095041;28;20044;-78
2022/05/14 09:07:56;;;;;;;23.40;5.53;;;20.40;96.30;;;;;;5113179;28;20398;-78
2022/05/14 09:10:34;;;;;;;19.00;5.05;;;20.40;97.10;;;;;;5096565;28;20148;-78
2022/05/14 09:13:01;;;;;;;20.27;4.13;;;20.60;95.60;;;;;;5109213;28;20043;-78
2022/05/14 09:15:30;;;;;;;22.27;4.30;;;20.90;94.90;;;;;;5076984;28;20043;-78
2022/05/14 09:18:11;;;;;;;21.63;4.72;;;21.20;93.40;;;;;;5103179;28;20043;-78
2022/05/14 09:20:44;;;;;;;16.80;4.25;;;21.40;92.10;;;;;;5100598;28;20434;-78
2022/05/14 09:23:09;;;;;;;22.63;4.85;;;21.50;91.80;;;;;;5094353;28;20050;-78
2022/05/14 09:25:40;;;;;;;17.40;4.28;;;21.50;91.10;;;;;;5089143;28;20032;-78
2022/05/14 09:28:10;;;;;;;31.85;5.18;;;21.60;91.00;;;;;;5107421;28;20123;-78
2022/05/14 09:30:40;;;;;;;17.10;4.93;;;21.60;89.90;;;;;;5091103;28;20066;-78
2022/05/14 09:33:09;;;;;;;34.88;5.93;;;21.60;88.60;;;;;;5096106;28;20496;-78
2022/05/14 09:35:35;;;;;;;21.33;4.55;;;21.60;87.30;;;;;;5114576;28;20047;-86
2022/05/14 09:38:12;;;;;;;22.08;5.20;;;21.50;86.50;;;;;;5097579;28;20039;-87
2022/05/14 09:40:38;;;;;;;18.15;4.88;;;21.50;84.20;;;;;;5114174;28;20040;-86
2022/05/14 09:43:16;;;;;;;18.25;4.38;;;21.40;84.90;;;;;;5113614;28;20051;-87
2022/05/14 09:46:07;;;;;;;19.23;4.80;;;21.20;84.00;;;;;;5096967;28;20035;-87
2022/05/14 09:48:51;;;;;;;27.58;5.53;;;21.10;82.90;;;;;;5099773;28;20040;-87
2022/05/14 09:51:46;;;;;;;31.88;4.30;;;20.90;85.50;;;;;;5111708;28;20042;-86
2022/05/14 09:54:21;;;;;;;18.33;4.50;;;20.80;85.70;;;;;;5115682;28;20433;-85
2022/05/14 09:56:56;;;;;;;23.27;4.68;;;20.80;85.20;;;;;;5116967;28;20043;-86
2022/05/14 09:59:56;;;;;;;37.15;6.47;;;20.80;85.30;;;;;;5113583;28;20395;-85
2022/05/14 10:02:38;;;;;;;19.45;4.60;;;20.90;84.60;;;;;;5096700;28;20055;-86
2022/05/14 10:05:18;;;;;;;29.38;5.10;;;20.90;85.00;;;;;;5113998;28;20479;-86
2022/05/14 10:07:52;;;;;;;17.75;3.83;;;20.90;84.20;;;;;;5114199;28;20071;-87
2022/05/14 10:10:33;;;;;;;15.30;4.13;;;20.80;84.60;;;;;;5112982;28;20040;-86
2022/05/14 10:13:27;;;;;;;18.98;4.30;;;20.70;84.60;;;;;;5094142;28;20051;-86
2022/05/14 10:16:06;;;;;;;22.38;4.80;;;20.60;86.40;;;;;;5094059;28;20051;-87
2022/05/14 10:18:59;;;;;;;20.80;5.07;;;20.60;85.70;;;;;;5109017;28;20043;-86
2022/05/14 10:21:46;;;;;;;14.52;4.05;;;20.60;85.20;;;;;;5096459;28;20049;-86
2022/05/14 10:27:14;;;;;;;24.98;4.95;;;20.20;84.10;;;;;;5113303;28;20122;-85
2022/05/14 10:30:16;;;;;;;16.13;4.15;;;20.00;83.30;;;;;;5106376;28;20055;-86
2022/05/14 10:32:43;;;;;;;18.70;4.38;;;20.10;80.70;;;;;;5124378;27;20046;-86
2022/05/14 10:35:19;;;;;;;21.83;4.35;;;20.20;82.60;;;;;;5113081;28;20047;-86
2022/05/14 10:38:06;;;;;;;33.22;4.88;;;20.20;82.20;;;;;;5111060;28;20411;-84
2022/05/14 10:40:40;;;;;;;14.05;3.80;;;20.20;81.20;;;;;;5092636;28;20373;-84
2022/05/14 10:43:34;;;;;;;18.90;3.67;;;20.20;82.20;;;;;;5094167;28;20074;-84
2022/05/14 10:46:07;;;;;;;23.67;4.32;;;20.20;82.30;;;;;;5112835;28;20488;-84
2022/05/14 10:48:37;;;;;;;23.40;5.07;;;20.40;82.00;;;;;;5117009;27;20499;-86
2022/05/14 10:51:06;;;;;;;16.75;4.05;;;20.50;81.80;;;;;;5089717;28;20084;-85
2022/05/14 10:53:33;;;;;;;15.15;3.85;;;20.40;80.50;;;;;;5094188;28;20063;-86
2022/05/14 10:56:22;;;;;;;13.82;3.97;;;20.50;79.90;;;;;;5094922;28;20040;-86
2022/05/14 10:59:04;;;;;;;18.25;4.40;;;20.50;80.60;;;;;;5101501;28;20043;-86
2022/05/14 11:01:53;;;;;;;18.80;4.05;;;20.40;79.30;;;;;;5075446;28;20106;-84
2022/05/14 11:04:22;;;;;;;19.02;4.63;;;20.20;79.00;;;;;;5072087;28;20047;-86
2022/05/14 11:06:56;;;;;;;19.55;4.60;;;20.10;79.80;;;;;;5104288;28;20040;-85
2022/05/14 11:09:38;;;;;;;19.10;4.80;;;20.00;80.30;;;;;;5108271;28;20048;-85
2022/05/14 11:12:18;;;;;;;19.77;4.25;;;20.00;80.20;;;;;;5109158;28;20063;-86
2022/05/14 11:14:52;;;;;;;14.77;3.97;;;20.00;80.20;;;;;;5109329;28;20074;-86
2022/05/14 11:17:39;;;;;;;29.73;4.22;;;19.90;78.60;;;;;;5109367;28;20035;-86
2022/05/14 11:20:04;;;;;;;18.88;4.32;;;19.90;79.20;;;;;;5093884;28;20048;-85
2022/05/14 11:22:45;;;;;;;25.42;4.85;;;19.90;79.00;;;;;;5106221;28;20077;-85
2022/05/14 11:25:24;;;;;;;16.25;4.55;;;19.90;78.60;;;;;;5103058;28;20035;-86
2022/05/14 11:28:07;;;;;;;13.73;3.80;;;19.90;78.10;;;;;;5092055;28;20036;-85
2022/05/14 11:30:38;;;;;;;21.17;4.28;;;20.00;80.00;;;;;;5077787;28;20063;-86
2022/05/14 11:33:26;;;;;;;18.13;4.10;;;20.10;79.20;;;;;;5106593;28;20036;-87
2022/05/14 11:35:59;;;;;;;15.00;4.28;;;20.30;78.90;;;;;;5111985;28;20093;-87
2022/05/14 11:38:24;;;;;;;17.40;4.30;;;20.40;78.30;;;;;;5095692;28;20487;-86
2022/05/14 11:41:00;;;;;;;14.48;4.32;;;20.50;78.20;;;;;;5088644;28;20086;-87
2022/05/14 11:43:36;;;;;;;15.60;4.30;;;20.60;77.10;;;;;;5088569;28;20108;-86
2022/05/14 11:46:24;;;;;;;17.38;4.38;;;20.60;77.90;;;;;;5095447;28;20035;-86
2022/05/14 11:49:17;;;;;;;13.75;4.00;;;20.70;78.20;;;;;;5079730;28;20522;-87
2022/05/14 11:52:11;;;;;;;19.98;4.38;;;20.70;76.80;;;;;;5092539;28;20545;-86
2022/05/14 11:54:48;;;;;;;15.40;3.78;;;20.70;77.10;;;;;;5087613;28;20043;-87
2022/05/14 11:57:28;;;;;;;16.55;4.28;;;20.70;76.90;;;;;;5108915;28;20043;-86
2022/05/14 11:59:59;;;;;;;22.85;5.38;;;20.80;76.60;;;;;;5091587;28;20526;-86
2022/05/14 12:03:17;;;;;;;39.22;5.25;;;20.80;76.30;;;;;;5074702;28;20496;-86
2022/05/14 12:06:12;;;;;;;18.10;4.13;;;20.70;73.60;;;;;;5074814;28;20036;-85
2022/05/14 12:08:50;;;;;;;19.45;4.18;;;20.60;74.60;;;;;;5079415;28;20496;-85
2022/05/14 12:11:30;;;;;;;18.02;3.72;;;20.60;75.00;;;;;;5086394;28;20094;-86
2022/05/14 12:14:10;;;;;;;18.70;4.18;;;20.50;75.00;;;;;;5096864;28;20106;-85
2022/05/14 12:16:40;;;;;;;20.67;4.20;;;20.50;75.80;;;;;;5111029;28;20051;-84
2022/05/14 12:19:14;;;;;;;16.15;3.95;;;20.40;75.70;;;;;;5105572;28;20387;-86
2022/05/14 12:21:40;;;;;;;16.77;4.65;;;20.40;75.70;;;;;;5113951;28;20476;-86
2022/05/14 12:24:18;;;;;;;23.60;4.30;;;20.50;75.30;;;;;;5097862;28;20115;-85
2022/05/14 12:26:44;;;;;;;36.67;6.20;;;20.60;74.40;;;;;;5093881;28;20036;-86
2022/05/14 12:29:25;;;;;;;30.58;4.57;;;20.80;75.50;;;;;;5075957;28;20104;-86
2022/05/14 12:34:53;;;;;;;15.38;4.10;;;21.30;73.00;;;;;;5095227;28;20066;-86
2022/05/14 12:37:37;;;;;;;16.08;4.40;;;21.50;73.40;;;;;;5095427;28;20070;-86
2022/05/14 12:40:03;;;;;;;15.60;3.63;;;21.60;73.30;;;;;;5112752;28;20100;-86
2022/05/14 12:42:34;;;;;;;31.25;4.75;;;21.70;72.90;;;;;;5097611;28;20039;-85
2022/05/14 12:45:00;;;;;;;27.33;5.18;;;21.90;72.10;;;;;;5115207;28;20118;-85
2022/05/14 12:47:29;;;;;;;16.63;4.40;;;22.10;72.90;;;;;;5115652;28;20039;-86
2022/05/14 12:49:55;;;;;;;16.13;4.20;;;22.40;72.80;;;;;;5111015;28;20076;-85
2022/05/14 12:52:28;;;;;;;20.20;4.07;;;22.80;72.90;;;;;;5098865;28;20036;-86
2022/05/14 12:54:54;;;;;;;13.85;4.20;;;23.30;70.70;;;;;;5115204;28;20090;-85
2022/05/14 12:57:22;;;;;;;16.90;4.25;;;23.70;71.00;;;;;;5094638;28;20063;-85
2022/05/14 12:59:48;;;;;;;13.93;3.65;;;23.90;70.10;;;;;;5085362;28;20421;-85
2022/05/14 13:02:30;;;;;;;50.08;5.85;;;24.10;69.50;;;;;;5084711;28;20404;-86
2022/05/14 13:05:28;;;;;;;19.20;4.15;;;24.20;66.60;;;;;;5094867;28;20044;-85
2022/05/14 13:07:59;;;;;;;16.85;4.13;;;24.50;66.90;;;;;;5099510;28;20039;-85
2022/05/14 13:10:27;;;;;;;50.60;6.15;;;24.80;66.60;;;;;;5105006;28;20054;-86
2022/05/14 13:13:04;;;;;;;27.23;4.88;;;25.20;66.70;;;;;;5114032;28;20501;-86
2022/05/14 13:15:38;;;;;;;34.42;5.97;;;25.70;65.80;;;;;;5114286;28;20657;-86
2022/05/14 13:18:23;;;;;;;18.77;4.60;;;26.10;63.20;;;;;;5104090;28;20043;-85